Time;durP1;ratioP1;P1;durP2;ratioP2;P2;SDS_P1;SDS_P2;PMS_P1;PMS_P2;Temp;Humidity;BMP_temperature;BMP_pressure;BME280_temperature;BME280_humidity;BME280_pressure;Samples;Min_cycle;Max_cycle;Signal;HPM_P1;HPM_P2
2024/03/16 00:00:14;;;;;;;;;;;;;;;16.75;48.53;101217.53;5097797;28;1107;-67
2024/03/16 00:02:39;;;;;;;;;;;;;;;17.69;46.30;101211.44;5094827;28;1045;-66
2024/03/16 00:05:05;;;;;;;;;;;;;;;16.60;48.60;101210.84;5086077;28;1120;-65
2024/03/16 00:07:30;;;;;;;;;;;;;;;16.08;50.26;101215.06;5097154;28;1972;-65
2024/03/16 00:09:56;;;;;;;;;;;;;;;15.82;50.59;101215.88;5082586;28;896;-65
2024/03/16 00:12:22;;;;;;;;;;;;;;;15.56;51.26;101213.66;5092576;28;1054;-65
2024/03/16 00:14:50;;;;;;;;;;;;;;;16.54;49.28;101205.59;5084806;28;2906;-66
2024/03/16 00:17:17;;;;;;;;;;;;;;;17.72;46.10;101213.66;5092904;28;1119;-66
2024/03/16 00:19:45;;;;;;;;;;;;;;;16.74;48.36;101210.41;5088305;28;1142;-66
2024/03/16 00:22:11;;;;;;;;;;;;;;;16.20;49.71;101211.31;5082182;28;1094;-66
2024/03/16 00:24:36;;;;;;;;;;;;;;;15.89;50.41;101213.75;5086310;28;1133;-68
2024/03/16 00:27:02;;;;;;;;;;;;;;;15.63;51.31;101213.47;5083284;28;1967;-66
2024/03/16 00:29:28;;;;;;;;;;;;;;;16.60;48.84;101212.75;5096846;28;1066;-67
2024/03/16 00:31:53;;;;;;;;;;;;;;;17.59;46.32;101215.81;5083946;28;1135;-67
2024/03/16 00:34:19;;;;;;;;;;;;;;;16.55;48.90;101212.72;5080871;28;934;-67
2024/03/16 00:36:44;;;;;;;;;;;;;;;16.00;50.21;101221.00;5079842;28;984;-67
2024/03/16 00:39:18;;;;;;;;;;;;;;;15.74;50.78;101220.72;5086956;28;1111;-67
2024/03/16 00:41:43;;;;;;;;;;;;;;;15.52;51.38;101222.66;5094346;28;1166;-67
2024/03/16 00:44:09;;;;;;;;;;;;;;;16.52;49.13;101227.81;5086512;28;2515;-66
2024/03/16 00:46:35;;;;;;;;;;;;;;;17.67;46.31;101217.22;5093558;28;1910;-67
2024/03/16 00:49:00;;;;;;;;;;;;;;;16.68;48.32;101219.69;5096301;28;1018;-68
2024/03/16 00:51:29;;;;;;;;;;;;;;;16.12;49.82;101214.53;5083365;28;1190;-68
2024/03/16 00:53:54;;;;;;;;;;;;;;;15.79;50.70;101213.63;5096662;28;1026;-67
2024/03/16 00:56:23;;;;;;;;;;;;;;;15.62;51.25;101217.28;5096354;28;1121;-68
2024/03/16 00:58:49;;;;;;;;;;;;;;;16.95;48.00;101205.88;5078256;28;936;-68
2024/03/16 01:01:14;;;;;;;;;;;;;;;17.40;46.50;101212.72;5089874;28;1091;-66
2024/03/16 01:03:40;;;;;;;;;;;;;;;16.41;48.96;101204.09;5086681;28;1063;-68
2024/03/16 01:06:05;;;;;;;;;;;;;;;16.04;50.11;101202.94;5091837;28;1119;-65
2024/03/16 01:08:32;;;;;;;;;;;;;;;15.73;50.87;101202.59;5076081;28;1906;-65
2024/03/16 01:10:57;;;;;;;;;;;;;;;15.53;51.59;101207.88;5094777;28;893;-65
2024/03/16 01:13:23;;;;;;;;;;;;;;;17.08;47.78;101208.19;5085936;28;2582;-67
2024/03/16 01:15:49;;;;;;;;;;;;;;;17.28;47.10;101203.88;5079741;28;1174;-66
2024/03/16 01:18:14;;;;;;;;;;;;;;;16.33;49.47;101202.66;5086051;28;1131;-64
2024/03/16 01:20:44;;;;;;;;;;;;;;;15.96;50.10;101202.59;5092633;28;1054;-64
2024/03/16 01:23:09;;;;;;;;;;;;;;;15.71;50.92;101206.69;5091179;28;887;-64
2024/03/16 01:25:35;;;;;;;;;;;;;;;15.54;51.46;101204.03;5082825;28;1161;-63
2024/03/16 01:28:00;;;;;;;;;;;;;;;17.08;47.82;101201.84;5085244;28;1909;-64
2024/03/16 01:30:26;;;;;;;;;;;;;;;17.15;47.29;101204.34;5089533;28;1107;-63
2024/03/16 01:32:51;;;;;;;;;;;;;;;16.25;49.61;101205.88;5087382;28;1186;-65
2024/03/16 01:35:17;;;;;;;;;;;;;;;15.95;50.30;101203.69;5089304;28;981;-64
2024/03/16 01:37:42;;;;;;;;;;;;;;;15.62;51.31;101200.84;5087195;28;1036;-64
2024/03/16 01:40:09;;;;;;;;;;;;;;;15.51;51.60;101196.31;5082402;28;1202;-65
2024/03/16 01:42:34;;;;;;;;;;;;;;;17.04;48.03;101203.47;5096118;28;1046;-65
2024/03/16 01:45:12;;;;;;;;;;;;;;;17.58;46.09;101196.84;5091075;28;2399;-65
2024/03/16 01:47:38;;;;;;;;;;;;;;;16.47;48.84;101202.25;5087595;28;1910;-65
2024/03/16 01:50:04;;;;;;;;;;;;;;;15.98;50.13;101201.25;5072915;28;983;-65
2024/03/16 01:52:29;;;;;;;;;;;;;;;15.70;50.85;101205.06;5075633;28;1051;-65
2024/03/16 01:54:55;;;;;;;;;;;;;;;15.47;51.26;101204.22;5086352;28;1067;-65
2024/03/16 01:57:20;;;;;;;;;;;;;;;16.54;49.03;101200.09;5093471;28;1413;-67
2024/03/16 01:59:46;;;;;;;;;;;;;;;17.68;46.10;101202.34;5093430;28;1142;-65
2024/03/16 02:02:28;;;;;;;;;;;;;;;16.74;48.27;101200.22;5084937;28;1166;-65
2024/03/16 02:04:54;;;;;;;;;;;;;;;16.02;50.10;101204.28;5051106;28;1235;-64
2024/03/16 02:07:19;;;;;;;;;;;;;;;15.80;50.52;101212.59;5095636;28;1988;-64
2024/03/16 02:09:45;;;;;;;;;;;;;;;15.58;50.94;101213.41;5077156;28;1070;-64
2024/03/16 02:12:11;;;;;;;;;;;;;;;15.57;51.23;101214.47;5075870;28;1067;-64
2024/03/16 02:14:37;;;;;;;;;;;;;;;17.14;47.53;101208.19;5094926;28;2703;-64
2024/03/16 02:17:04;;;;;;;;;;;;;;;17.27;46.95;101202.22;5085662;28;1118;-64
2024/03/16 02:19:31;;;;;;;;;;;;;;;16.32;49.40;101209.25;5099117;28;1242;-64
2024/03/16 02:21:57;;;;;;;;;;;;;;;15.91;50.18;101204.19;5086289;28;1194;-64
2024/03/16 02:24:23;;;;;;;;;;;;;;;15.76;50.49;101214.16;5093029;28;1205;-65
2024/03/16 02:26:49;;;;;;;;;;;;;;;16.11;50.00;101210.16;5092858;28;1987;-65
2024/03/16 02:29:14;;;;;;;;;;;;;;;17.51;46.50;101212.75;5099122;28;1093;-65
2024/03/16 02:31:41;;;;;;;;;;;;;;;16.88;47.98;101219.00;5085414;28;1135;-66
2024/03/16 02:34:07;;;;;;;;;;;;;;;16.16;49.45;101218.41;5099145;28;1008;-64
2024/03/16 02:36:32;;;;;;;;;;;;;;;15.79;50.41;101222.72;5098889;28;1054;-63
2024/03/16 02:38:58;;;;;;;;;;;;;;;15.63;51.00;101220.88;5085536;28;1182;-63
2024/03/16 02:41:25;;;;;;;;;;;;;;;15.65;51.12;101225.00;5099053;28;1074;-62
2024/03/16 02:43:50;;;;;;;;;;;;;;;17.24;47.30;101213.75;5092160;28;2572;-63
2024/03/16 02:46:16;;;;;;;;;;;;;;;17.21;46.84;101214.28;5085262;28;1909;-62
2024/03/16 02:48:41;;;;;;;;;;;;;;;16.37;48.99;101224.94;5092152;28;1071;-62
2024/03/16 02:51:07;;;;;;;;;;;;;;;15.98;49.90;101225.13;5092112;28;1106;-63
2024/03/16 02:53:34;;;;;;;;;;;;;;;15.71;50.53;101226.72;5086158;28;1099;-63
2024/03/16 02:56:00;;;;;;;;;;;;;;;16.49;49.01;101228.31;5098622;28;1109;-63
2024/03/16 02:58:25;;;;;;;;;;;;;;;17.66;46.13;101236.75;5098569;28;983;-67
2024/03/16 03:00:51;;;;;;;;;;;;;;;16.54;48.38;101227.56;5084864;28;1027;-66
2024/03/16 03:03:17;;;;;;;;;;;;;;;16.08;49.59;101230.69;5086157;28;952;-66
2024/03/16 03:05:42;;;;;;;;;;;;;;;15.82;50.55;101232.34;5098500;28;1034;-65
2024/03/16 03:08:08;;;;;;;;;;;;;;;15.61;50.75;101240.28;5098733;28;1972;-64
2024/03/16 03:10:33;;;;;;;;;;;;;;;16.30;49.49;101243.53;5091327;28;1070;-64
2024/03/16 03:12:59;;;;;;;;;;;;;;;17.58;46.25;101235.31;5098453;28;1097;-66
2024/03/16 03:15:24;;;;;;;;;;;;;;;17.07;47.01;101239.47;5094623;28;2654;-67
2024/03/16 03:17:50;;;;;;;;;;;;;;;16.22;49.17;101237.41;5098082;28;1039;-66
2024/03/16 03:20:16;;;;;;;;;;;;;;;15.89;50.05;101244.78;5098018;28;1165;-66
2024/03/16 03:22:41;;;;;;;;;;;;;;;15.70;50.71;101246.16;5081408;28;1137;-66
2024/03/16 03:25:09;;;;;;;;;;;;;;;15.50;51.20;101241.25;5091717;28;1035;-66
2024/03/16 03:27:35;;;;;;;;;;;;;;;16.87;47.83;101244.81;5097901;28;2035;-65
2024/03/16 03:30:00;;;;;;;;;;;;;;;17.34;46.56;101246.78;5098149;28;1137;-65
2024/03/16 03:32:26;;;;;;;;;;;;;;;16.30;49.27;101255.34;5098611;28;1145;-66
2024/03/16 03:34:51;;;;;;;;;;;;;;;15.89;50.28;101250.25;5088785;28;1046;-66
2024/03/16 03:37:17;;;;;;;;;;;;;;;15.62;50.90;101255.66;5091566;28;1054;-64
2024/03/16 03:39:42;;;;;;;;;;;;;;;15.94;50.49;101256.91;5091784;28;1138;-64
2024/03/16 03:42:10;;;;;;;;;;;;;;;17.39;46.65;101251.47;5077881;28;1179;-65
2024/03/16 03:44:38;;;;;;;;;;;;;;;17.26;46.55;101255.53;5078077;28;1099;-65
2024/03/16 03:47:04;;;;;;;;;;;;;;;16.37;49.01;101250.47;5095148;28;1902;-65
2024/03/16 03:49:32;;;;;;;;;;;;;;;16.00;49.78;101253.09;5097402;28;1041;-63
2024/03/16 03:51:58;;;;;;;;;;;;;;;15.70;50.35;101252.47;5097819;28;1149;-64
2024/03/16 03:54:24;;;;;;;;;;;;;;;15.55;51.06;101260.50;5096931;28;1118;-64
2024/03/16 03:56:50;;;;;;;;;;;;;;;16.83;47.97;101262.91;5084822;28;1218;-64
2024/03/16 03:59:15;;;;;;;;;;;;;;;17.78;45.61;101265.66;5087004;28;1065;-64
2024/03/16 04:01:41;;;;;;;;;;;;;;;16.68;48.26;101272.69;5097758;28;1030;-63
2024/03/16 04:04:06;;;;;;;;;;;;;;;16.17;49.45;101266.72;5097339;28;1193;-63
2024/03/16 04:06:32;;;;;;;;;;;;;;;15.82;50.25;101276.22;5097801;28;1981;-63
2024/03/16 04:08:57;;;;;;;;;;;;;;;15.60;50.82;101274.28;5097246;28;1081;-68
2024/03/16 04:11:24;;;;;;;;;;;;;;;16.32;49.38;101275.09;5093582;28;852;-67
2024/03/16 04:13:49;;;;;;;;;;;;;;;17.62;45.97;101273.00;5097408;28;1227;-67
2024/03/16 04:16:15;;;;;;;;;;;;;;;16.66;48.21;101277.63;5075075;28;1058;-66
2024/03/16 04:18:41;;;;;;;;;;;;;;;16.02;49.88;101270.97;5078801;28;1030;-61
2024/03/16 04:21:07;;;;;;;;;;;;;;;15.73;50.36;101268.41;5095436;28;1074;-63
2024/03/16 04:23:32;;;;;;;;;;;;;;;15.49;51.19;101280.72;5088229;28;994;-63
2024/03/16 04:25:58;;;;;;;;;;;;;;;15.73;50.86;101278.56;5094777;28;1436;-59
2024/03/16 04:28:23;;;;;;;;;;;;;;;17.28;46.82;101275.34;5085390;28;1909;-64
2024/03/16 04:30:49;;;;;;;;;;;;;;;17.41;46.17;101283.09;5095541;28;1022;-60
2024/03/16 04:33:15;;;;;;;;;;;;;;;16.37;48.72;101290.81;5067943;28;1258;-63
2024/03/16 04:35:41;;;;;;;;;;;;;;;15.93;49.95;101283.47;5061708;28;1302;-62
2024/03/16 04:38:09;;;;;;;;;;;;;;;15.70;50.53;101279.88;5058311;28;1262;-64
2024/03/16 04:40:35;;;;;;;;;;;;;;;15.51;50.82;101292.25;5042497;28;1227;-64
2024/03/16 04:43:00;;;;;;;;;;;;;;;17.09;47.20;101289.50;5058378;28;1234;-63
2024/03/16 04:45:26;;;;;;;;;;;;;;;17.34;46.48;101288.00;5096902;28;1141;-63
2024/03/16 04:47:52;;;;;;;;;;;;;;;16.34;48.75;101297.66;5083396;28;1910;-63
2024/03/16 04:50:17;;;;;;;;;;;;;;;15.88;50.10;101295.22;5056385;28;1242;-62
2024/03/16 04:52:43;;;;;;;;;;;;;;;15.72;50.29;101296.09;5056910;28;1235;-58
2024/03/16 04:55:08;;;;;;;;;;;;;;;16.39;49.12;101289.44;5076979;28;940;-58
2024/03/16 04:57:34;;;;;;;;;;;;;;;17.66;45.82;101297.25;5090825;28;1135;-64
2024/03/16 04:59:59;;;;;;;;;;;;;;;16.71;47.65;101299.63;5089178;28;898;-59
2024/03/16 05:02:25;;;;;;;;;;;;;;;16.10;49.33;101299.03;5096779;28;1014;-60
2024/03/16 05:04:51;;;;;;;;;;;;;;;15.73;50.24;101297.75;5085467;28;1174;-58
2024/03/16 05:07:16;;;;;;;;;;;;;;;15.64;50.65;101302.84;5080218;28;1910;-59
2024/03/16 05:09:42;;;;;;;;;;;;;;;16.18;49.70;101304.06;5066433;28;1556;-60
2024/03/16 05:12:08;;;;;;;;;;;;;;;17.67;46.17;101299.72;5080507;28;1070;-61
2024/03/16 05:14:34;;;;;;;;;;;;;;;16.49;48.95;101302.44;5096011;28;1078;-58
2024/03/16 05:16:59;;;;;;;;;;;;;;;15.87;49.31;101298.22;5082914;28;1114;-58
2024/03/16 05:19:25;;;;;;;;;;;;;;;15.57;49.20;101304.94;5083431;28;1177;-57
2024/03/16 05:21:51;;;;;;;;;;;;;;;16.41;49.03;101306.50;5088548;28;1032;-58
2024/03/16 05:24:16;;;;;;;;;;;;;;;16.14;49.66;101319.38;5077662;28;918;-59
2024/03/16 05:26:42;;;;;;;;;;;;;;;15.75;49.30;101320.25;5075905;28;1910;-60
2024/03/16 05:29:08;;;;;;;;;;;;;;;16.54;49.06;101320.91;5087845;28;1103;-63
2024/03/16 05:31:33;;;;;;;;;;;;;;;16.69;48.52;101312.78;5095859;28;998;-66
2024/03/16 05:33:59;;;;;;;;;;;;;;;15.86;49.73;101323.97;5084618;28;1095;-65
2024/03/16 05:36:24;;;;;;;;;;;;;;;15.66;48.95;101335.50;5080130;28;1004;-66
2024/03/16 05:38:49;;;;;;;;;;;;;;;15.56;47.92;101336.19;5087865;28;1127;-64
2024/03/16 05:41:15;;;;;;;;;;;;;;;15.42;48.18;101324.75;5082112;28;2552;-66
2024/03/16 05:43:44;;;;;;;;;;;;;;;17.09;48.18;101322.47;5090140;28;1138;-67
2024/03/16 05:46:10;;;;;;;;;;;;;;;16.11;49.67;101317.16;5096404;28;1074;-66
2024/03/16 05:48:35;;;;;;;;;;;;;;;15.69;49.04;101327.56;5080832;28;1976;-66
2024/03/16 05:51:07;;;;;;;;;;;;;;;16.45;49.23;101327.94;5089875;28;1115;-64
2024/03/16 05:53:33;;;;;;;;;;;;;;;16.35;49.32;101323.97;5074180;28;1070;-65
2024/03/16 05:55:58;;;;;;;;;;;;;;;15.84;49.28;101320.69;5099702;28;1015;-65
2024/03/16 05:58:24;;;;;;;;;;;;;;;15.69;48.55;101316.59;5099899;28;1027;-65
2024/03/16 06:00:49;;;;;;;;;;;;;;;16.56;49.11;101319.56;5079385;28;907;-65
2024/03/16 06:03:15;;;;;;;;;;;;;;;16.70;48.78;101319.91;5086793;28;1058;-66
2024/03/16 06:05:45;;;;;;;;;;;;;;;16.05;49.09;101321.75;5099401;28;1031;-61
2024/03/16 06:08:11;;;;;;;;;;;;;;;17.53;47.58;101331.53;5096251;28;1974;-63
2024/03/16 06:10:36;;;;;;;;;;;;;;;16.54;49.04;101326.38;5092853;28;2654;-59
2024/03/16 06:13:02;;;;;;;;;;;;;;;16.14;48.66;101324.88;5090268;28;847;-59
2024/03/16 06:15:28;;;;;;;;;;;;;;;15.83;48.18;101327.25;5086347;28;1043;-56
2024/03/16 06:17:53;;;;;;;;;;;;;;;15.72;48.46;101326.25;5093625;28;1147;-57
2024/03/16 06:20:19;;;;;;;;;;;;;;;17.31;48.13;101331.72;5099404;28;1176;-61
2024/03/16 06:22:44;;;;;;;;;;;;;;;16.36;49.54;101342.13;5099731;28;1210;-62
2024/03/16 06:25:12;;;;;;;;;;;;;;;15.97;49.65;101339.47;5095944;28;895;-62
2024/03/16 06:27:43;;;;;;;;;;;;;;;17.31;47.97;101335.28;5091711;28;1909;-62
2024/03/16 06:30:15;;;;;;;;;;;;;;;16.24;49.08;101333.19;5062365;28;1059;-61
2024/03/16 06:32:55;;;;;;;;;;;;;;;16.57;49.50;101340.41;5099119;28;1097;-62
2024/03/16 06:35:21;;;;;;;;;;;;;;;16.51;49.01;101349.69;5082514;28;1150;-60
2024/03/16 06:37:46;;;;;;;;;;;;;;;16.01;48.97;101335.13;5099133;28;1071;-61
2024/03/16 06:40:14;;;;;;;;;;;;;;;17.08;48.14;101337.31;5094824;28;2454;-61
2024/03/16 06:42:39;;;;;;;;;;;;;;;16.22;49.34;101335.38;5079338;28;1067;-61
2024/03/16 06:45:06;;;;;;;;;;;;;;;16.82;48.98;101343.66;5083213;28;1059;-61
2024/03/16 06:47:31;;;;;;;;;;;;;;;16.72;49.01;101336.97;5096844;28;1984;-62
2024/03/16 06:49:57;;;;;;;;;;;;;;;16.21;48.93;101339.22;5083191;28;1082;-62
2024/03/16 06:52:24;;;;;;;;;;;;;;;15.96;48.37;101346.03;5098438;28;1038;-61
2024/03/16 06:54:51;;;;;;;;;;;;;;;16.41;48.98;101357.81;5085441;28;1038;-61
2024/03/16 06:57:16;;;;;;;;;;;;;;;16.39;49.42;101358.06;5087399;28;1034;-61
2024/03/16 06:59:42;;;;;;;;;;;;;;;16.02;48.89;101356.00;5080943;28;1008;-61
2024/03/16 07:02:07;;;;;;;;;;;;;;;15.82;48.33;101358.47;5087251;28;1107;-60
2024/03/16 07:04:33;;;;;;;;;;;;;;;16.15;48.75;101362.19;5077491;28;1164;-61
2024/03/16 07:06:58;;;;;;;;;;;;;;;16.66;48.91;101370.13;5098860;28;1898;-59
2024/03/16 07:09:23;;;;;;;;;;;;;;;15.91;49.31;101365.19;5098073;28;1019;-56
2024/03/16 07:11:49;;;;;;;;;;;;;;;15.84;48.29;101368.13;5088462;28;2771;-60
2024/03/16 07:14:15;;;;;;;;;;;;;;;15.91;48.66;101376.97;5081776;28;1003;-57
2024/03/16 07:16:41;;;;;;;;;;;;;;;17.07;48.14;101370.56;5085186;28;1565;-59
2024/03/16 07:19:07;;;;;;;;;;;;;;;16.10;49.35;101382.16;5085078;28;1134;-59
2024/03/16 07:21:32;;;;;;;;;;;;;;;17.28;47.98;101385.28;5088797;28;1066;-59
2024/03/16 07:23:58;;;;;;;;;;;;;;;16.77;48.86;101383.72;5080175;28;1011;-59
2024/03/16 07:26:23;;;;;;;;;;;;;;;16.26;49.00;101385.91;5080081;28;1099;-60
2024/03/16 07:28:49;;;;;;;;;;;;;;;16.01;48.68;101380.94;5098511;28;2004;-59
2024/03/16 07:31:14;;;;;;;;;;;;;;;15.94;48.96;101389.38;5098209;28;1121;-59
2024/03/16 07:33:40;;;;;;;;;;;;;;;16.75;49.09;101391.38;5089693;28;1089;-59
2024/03/16 07:36:06;;;;;;;;;;;;;;;16.02;49.25;101385.34;5081088;28;1095;-60
2024/03/16 07:38:31;;;;;;;;;;;;;;;15.89;48.37;101392.03;5084448;28;1046;-62
2024/03/16 07:40:57;;;;;;;;;;;;;;;15.67;48.08;101383.75;5087639;28;1930;-60
2024/03/16 07:43:23;;;;;;;;;;;;;;;15.60;47.84;101389.44;5095802;28;1020;-58
2024/03/16 07:45:51;;;;;;;;;;;;;;;17.15;48.36;101386.53;5098203;28;1108;-58
2024/03/16 07:48:17;;;;;;;;;;;;;;;16.20;49.32;101386.94;5096553;28;1914;-58
2024/03/16 07:50:42;;;;;;;;;;;;;;;15.99;49.75;101396.81;5093159;28;1130;-58
2024/03/16 07:53:10;;;;;;;;;;;;;;;17.03;48.49;101389.47;5077404;28;1198;-58
2024/03/16 07:55:37;;;;;;;;;;;;;;;16.17;49.50;101388.28;5095848;28;1102;-59
2024/03/16 07:58:03;;;;;;;;;;;;;;;15.91;48.71;101393.44;5086219;28;1111;-59
2024/03/16 08:00:28;;;;;;;;;;;;;;;15.73;48.19;101389.03;5090717;28;1123;-60
2024/03/16 08:02:54;;;;;;;;;;;;;;;16.77;48.62;101391.13;5089884;28;1221;-60
2024/03/16 08:05:20;;;;;;;;;;;;;;;16.52;49.15;101384.28;5084448;28;1294;-61
2024/03/16 08:07:47;;;;;;;;;;;;;;;16.02;49.14;101386.19;5097562;28;1980;-60
2024/03/16 08:10:12;;;;;;;;;;;;;;;15.78;48.66;101384.72;5080177;28;2148;-59
2024/03/16 08:12:38;;;;;;;;;;;;;;;17.18;48.22;101382.44;5083756;28;1103;-60
2024/03/16 08:15:05;;;;;;;;;;;;;;;16.45;49.62;101389.13;5096057;28;1012;-59
2024/03/16 08:17:31;;;;;;;;;;;;;;;16.13;49.00;101378.06;5097206;28;1027;-60
2024/03/16 08:19:57;;;;;;;;;;;;;;;15.87;48.70;101392.28;5078495;28;1133;-59
2024/03/16 08:22:23;;;;;;;;;;;;;;;16.64;49.23;101380.56;5089636;28;1003;-59
2024/03/16 08:24:48;;;;;;;;;;;;;;;16.37;49.29;101382.22;5079326;28;1209;-59
2024/03/16 08:27:14;;;;;;;;;;;;;;;16.03;48.98;101376.88;5076960;28;1902;-59
2024/03/16 08:29:39;;;;;;;;;;;;;;;15.89;48.63;101381.06;5081728;28;996;-59
2024/03/16 08:32:05;;;;;;;;;;;;;;;17.51;47.80;101373.06;5097629;28;1051;-61
2024/03/16 08:34:31;;;;;;;;;;;;;;;16.47;49.31;101380.69;5096298;28;1081;-61
2024/03/16 08:36:56;;;;;;;;;;;;;;;16.05;48.93;101385.66;5092754;28;1093;-61
2024/03/16 08:39:25;;;;;;;;;;;;;;;15.90;48.20;101379.97;5096853;28;1055;-60
2024/03/16 08:41:51;;;;;;;;;;;;;;;17.06;48.58;101374.38;5090202;28;2649;-58
2024/03/16 08:44:17;;;;;;;;;;;;;;;16.74;48.89;101384.22;5092521;28;1515;-58
2024/03/16 08:46:42;;;;;;;;;;;;;;;16.08;49.38;101379.66;5087571;28;1897;-57
2024/03/16 08:49:08;;;;;;;;;;;;;;;15.88;48.54;101384.91;5092529;28;1094;-57
2024/03/16 08:51:33;;;;;;;;;;;;;;;16.66;49.01;101379.22;5085928;28;1059;-60
2024/03/16 08:53:59;;;;;;;;;;;;;;;16.10;49.32;101378.59;5093817;28;1134;-61
2024/03/16 08:56:27;;;;;;;;;;;;;;;17.17;48.35;101372.56;5096177;28;1130;-61
2024/03/16 08:58:53;;;;;;;;;;;;;;;17.31;47.91;101368.25;5078447;28;1047;-60
2024/03/16 09:01:19;;;;;;;;;;;;;;;16.31;49.42;101366.75;5088040;28;1043;-61
2024/03/16 09:03:45;;;;;;;;;;;;;;;16.05;48.90;101369.19;5090031;28;1183;-62
2024/03/16 09:06:10;;;;;;;;;;;;;;;16.28;49.10;101367.28;5076158;28;1098;-63
2024/03/16 09:08:37;;;;;;;;;;;;;;;17.67;47.61;101368.50;5093946;28;1914;-61
2024/03/16 09:11:02;;;;;;;;;;;;;;;16.50;49.35;101363.69;5096262;28;2399;-61
2024/03/16 09:13:29;;;;;;;;;;;;;;;16.14;48.77;101366.00;5068966;28;1150;-60
2024/03/16 09:15:55;;;;;;;;;;;;;;;17.38;48.19;101362.53;5068144;28;1107;-59
2024/03/16 09:18:20;;;;;;;;;;;;;;;16.74;49.00;101358.69;5068909;28;1210;-59
2024/03/16 09:20:46;;;;;;;;;;;;;;;16.27;49.14;101362.03;5064968;28;1273;-59
2024/03/16 09:23:13;;;;;;;;;;;;;;;17.14;48.94;101364.81;5073452;28;1031;-62
2024/03/16 09:25:40;;;;;;;;;;;;;;;17.08;48.64;101358.44;5084347;28;1000;-61
2024/03/16 09:28:07;;;;;;;;;;;;;;;16.40;48.81;101359.72;5091224;28;1918;-60
2024/03/16 09:30:33;;;;;;;;;;;;;;;16.15;48.59;101364.94;5076157;28;1046;-59
2024/03/16 09:32:59;;;;;;;;;;;;;;;15.95;48.16;101366.34;5089312;28;951;-59
2024/03/16 09:35:26;;;;;;;;;;;;;;;16.51;48.66;101368.06;5087036;28;1036;-59
2024/03/16 09:37:51;;;;;;;;;;;;;;;17.23;48.36;101368.75;5088126;28;1150;-59
2024/03/16 09:40:17;;;;;;;;;;;;;;;16.36;49.32;101363.25;5091396;28;2531;-58
2024/03/16 09:42:43;;;;;;;;;;;;;;;16.10;48.83;101362.13;5089100;28;1028;-61
2024/03/16 09:45:18;;;;;;;;;;;;;;;15.98;48.15;101365.81;5087744;28;1074;-60
2024/03/16 09:47:44;;;;;;;;;;;;;;;17.54;47.84;101366.19;5095771;28;1913;-58
2024/03/16 09:50:10;;;;;;;;;;;;;;;16.67;49.19;101356.16;5065504;28;1274;-58
2024/03/16 09:52:36;;;;;;;;;;;;;;;16.23;49.24;101351.59;5095636;28;1090;-62
2024/03/16 09:55:02;;;;;;;;;;;;;;;16.00;48.37;101351.84;5082848;28;1146;-59
2024/03/16 09:57:29;;;;;;;;;;;;;;;16.95;48.90;101365.22;5057391;28;1083;-60
2024/03/16 09:59:55;;;;;;;;;;;;;;;16.18;49.54;101361.69;5071944;28;1429;-59
2024/03/16 10:02:20;;;;;;;;;;;;;;;16.22;49.69;101362.81;5082956;28;859;-58
2024/03/16 10:04:46;;;;;;;;;;;;;;;17.04;48.54;101363.66;5089143;28;1087;-59
2024/03/16 10:07:12;;;;;;;;;;;;;;;16.22;49.56;101357.34;5095054;28;1917;-59
2024/03/16 10:09:49;;;;;;;;;;;;;;;16.42;49.59;101357.56;5095789;28;1019;-62
2024/03/16 10:12:15;;;;;;;;;;;;;;;17.27;48.30;101361.63;5053923;28;1542;-64
2024/03/16 10:14:40;;;;;;;;;;;;;;;16.46;49.10;101357.03;5094954;28;1011;-62
2024/03/16 10:17:06;;;;;;;;;;;;;;;16.09;48.97;101355.81;5087684;28;1083;-64
2024/03/16 10:19:35;;;;;;;;;;;;;;;16.79;48.95;101357.91;5088743;28;1028;-60
2024/03/16 10:22:01;;;;;;;;;;;;;;;16.22;49.02;101355.41;5084151;28;1185;-58
2024/03/16 10:24:26;;;;;;;;;;;;;;;15.98;48.62;101354.84;5094575;28;1058;-58
2024/03/16 10:26:52;;;;;;;;;;;;;;;15.90;47.73;101352.56;5087704;28;1906;-60
2024/03/16 10:29:19;;;;;;;;;;;;;;;16.08;48.11;101351.41;5095313;28;1019;-59
2024/03/16 10:31:45;;;;;;;;;;;;;;;17.00;48.51;101350.69;5087713;28;1241;-58
2024/03/16 10:34:11;;;;;;;;;;;;;;;16.06;49.46;101359.06;5071671;28;1168;-59
2024/03/16 10:36:37;;;;;;;;;;;;;;;15.94;48.45;101353.72;5069572;28;1074;-59
2024/03/16 10:39:03;;;;;;;;;;;;;;;15.85;47.79;101349.75;5076824;28;888;-59
2024/03/16 10:41:28;;;;;;;;;;;;;;;17.19;48.05;101348.38;5092750;28;2666;-58
2024/03/16 10:43:54;;;;;;;;;;;;;;;16.23;49.06;101345.28;5085753;28;1182;-59
2024/03/16 10:46:20;;;;;;;;;;;;;;;15.95;48.55;101344.41;5080645;28;1046;-58
2024/03/16 10:48:46;;;;;;;;;;;;;;;16.68;48.90;101349.56;5085300;28;1897;-59
2024/03/16 10:51:15;;;;;;;;;;;;;;;16.46;49.27;101351.56;5081913;28;875;-61
2024/03/16 10:53:40;;;;;;;;;;;;;;;16.06;48.91;101343.44;5091928;28;1059;-61
2024/03/16 10:56:06;;;;;;;;;;;;;;;15.83;48.38;101339.03;5087079;28;1206;-61
2024/03/16 10:58:32;;;;;;;;;;;;;;;15.70;47.84;101350.34;5080256;28;1087;-61
2024/03/16 11:01:03;;;;;;;;;;;;;;;16.85;48.53;101332.16;5098824;28;1018;-61
2024/03/16 11:03:30;;;;;;;;;;;;;;;16.37;49.17;101335.53;5095908;28;895;-62
2024/03/16 11:06:01;;;;;;;;;;;;;;;15.88;49.15;101327.31;5098786;28;1246;-61
2024/03/16 11:08:42;;;;;;;;;;;;;;;15.77;48.50;101326.31;5098583;28;1961;-61
2024/03/16 11:11:26;;;;;;;;;;;;;;;17.12;48.16;101328.53;5086974;28;2382;-65
2024/03/16 11:13:55;;;;;;;;;;;;;;;16.22;49.00;101327.16;5082057;28;988;-62
2024/03/16 11:16:30;;;;;;;;;;;;;;;15.79;48.87;101326.06;5093595;28;1043;-59
2024/03/16 11:18:56;;;;;;;;;;;;;;;15.74;48.42;101318.59;5097808;28;1187;-58
2024/03/16 11:21:22;;;;;;;;;;;;;;;17.34;47.53;101310.00;5095732;28;1007;-59
2024/03/16 11:23:48;;;;;;;;;;;;;;;16.16;49.53;101314.44;5087831;28;1012;-60
2024/03/16 11:26:26;;;;;;;;;;;;;;;15.90;48.97;101305.94;5084246;28;1030;-58
2024/03/16 11:28:51;;;;;;;;;;;;;;;16.72;48.94;101301.28;5098093;28;1909;-58
2024/03/16 11:31:27;;;;;;;;;;;;;;;17.26;47.80;101294.00;5084892;28;1134;-58
2024/03/16 11:33:52;;;;;;;;;;;;;;;16.32;49.19;101297.06;5085910;28;1115;-58
2024/03/16 11:36:18;;;;;;;;;;;;;;;16.03;48.96;101302.81;5091476;28;1044;-58
2024/03/16 11:38:49;;;;;;;;;;;;;;;17.72;47.41;101296.16;5080089;28;1106;-60
2024/03/16 11:41:14;;;;;;;;;;;;;;;16.56;48.95;101291.25;5096958;28;2649;-61
2024/03/16 11:43:40;;;;;;;;;;;;;;;16.14;48.90;101290.00;5098251;28;996;-61
2024/03/16 11:46:05;;;;;;;;;;;;;;;15.91;48.43;101288.41;5091566;28;1042;-61
2024/03/16 11:48:31;;;;;;;;;;;;;;;17.09;48.62;101285.94;5059335;28;1905;-60
2024/03/16 11:50:56;;;;;;;;;;;;;;;16.36;49.08;101283.66;5083615;28;1040;-59
2024/03/16 11:53:22;;;;;;;;;;;;;;;16.04;48.73;101287.16;5097539;28;1101;-59
2024/03/16 11:55:47;;;;;;;;;;;;;;;17.33;48.06;101285.53;5097632;28;1145;-60
2024/03/16 11:58:14;;;;;;;;;;;;;;;16.47;49.10;101279.09;5085598;28;1182;-59
2024/03/16 12:00:45;;;;;;;;;;;;;;;16.10;48.90;101290.78;5096635;28;1059;-61
2024/03/16 12:03:10;;;;;;;;;;;;;;;15.95;48.15;101286.81;5085195;28;1018;-61
2024/03/16 12:05:36;;;;;;;;;;;;;;;17.31;48.19;101291.28;5066014;28;1032;-61
2024/03/16 12:08:04;;;;;;;;;;;;;;;16.49;49.29;101285.16;5079458;28;1906;-60
2024/03/16 12:10:31;;;;;;;;;;;;;;;16.14;48.59;101289.19;5064658;28;2546;-59
2024/03/16 12:12:57;;;;;;;;;;;;;;;17.23;48.35;101278.88;5090552;28;1004;-61
2024/03/16 12:15:22;;;;;;;;;;;;;;;16.38;49.12;101290.56;5090007;28;904;-60
2024/03/16 12:17:51;;;;;;;;;;;;;;;16.02;48.52;101279.19;5083703;28;1123;-60
2024/03/16 12:20:16;;;;;;;;;;;;;;;16.96;48.60;101273.47;5084685;28;1000;-59
2024/03/16 12:22:53;;;;;;;;;;;;;;;16.48;49.17;101278.84;5096514;28;1018;-59
2024/03/16 12:25:25;;;;;;;;;;;;;;;16.10;48.73;101283.38;5088579;28;1091;-59
2024/03/16 12:27:50;;;;;;;;;;;;;;;15.83;48.03;101277.88;5089531;28;1905;-60
2024/03/16 12:30:16;;;;;;;;;;;;;;;16.34;48.61;101277.59;5086829;28;1111;-59
2024/03/16 12:32:42;;;;;;;;;;;;;;;16.79;48.80;101281.84;5083375;28;1055;-59
2024/03/16 12:35:09;;;;;;;;;;;;;;;16.17;49.12;101272.22;5087734;28;1209;-58
2024/03/16 12:37:34;;;;;;;;;;;;;;;15.97;48.46;101281.88;5090411;28;1091;-59
2024/03/16 12:40:00;;;;;;;;;;;;;;;15.83;47.98;101277.88;5083502;28;2439;-59
2024/03/16 12:42:26;;;;;;;;;;;;;;;17.02;48.39;101269.66;5076486;28;1166;-61